Airfield :
LOGIN :

Register | Disclaimer

   EN    FR    IT 

 










Legend :    VFR   Marginal VFR   IFR   Intensive IFR   Very Intensive IFR
Visi :
Ceiling :
>= 8 km
>= 3000ft
5 to 8 km
1000 to 3000 ft
1500m to 5 km
500 to 1000 ft
800 to 1500m
200 to 500 ft
< 800m
< 200 ft
Symbols :   Thunderstorms  Fog  Heavy snow  Heavy precipitations  Wind > 20 kt
SIGMETs :     Misc.  Thunderstorms  Icing  Turbulence  Mountain Waves  Volcanic Ashes






- Airport Elevation : 56 ft


LPOV - Ovar Air Base

CURRENT METAR :
  • 241500Z 32003KT 9999 FEW025 SCT040 21/15 Q1011

EXPIRED METARs :
  • 241400Z 31005KT 270V340 9999 FEW025 SCT040 20/16 Q1011
  • 241300Z 29007KT 250V330 9999 FEW020 21/14 Q1012
  • 241200Z 30007KT 260V330 9999 FEW020 22/15 Q1012

TAF TAF LPOV
Valid from the 24 at 12:00 until the 25 at 12:00 UTC


241101Z 2412/2512 27005KT 9999 FEW030
PROB40
TEMPO 2412/2418 6000 -SHRA BKN022 FEW030CB
BECMG 2420/2423 16010KT FEW012 SCT025
TEMPO 2423/2512 6000 -SHRA SCT010 BKN014 FEW030CB
PROB40
TEMPO 2501/2512 3000 TSRA BKN008 SCT020CB



MET'MAP, your aeronautical weather chart ! - Copyright ORBIFLY December 2007 - Disclaimer

ORBIFLY MET'MAP TEAM :

Programming & Development : Alexandra Zaïnal
Concept & original design : Baudouin d'Aumeries
Assistance for programming : Marc-Olivier Méhu
Technical & hardware support : Manuel Goepfert

Contact : metmap@orbifly.com




SOURCES & CREDITS :

   NOAA